Time;durP1;ratioP1;P1;durP2;ratioP2;P2;SDS_P1;SDS_P2;PMS_P1;PMS_P2;Temp;Humidity;BMP_temperature;BMP_pressure;BME280_temperature;BME280_humidity;BME280_pressure;Samples;Min_cycle;Max_cycle;Signal;HPM_P1;HPM_P2
2023/05/18 00:02:25;;;;;;;;;7.00;6.00;;;;;-143.57;100.00;65101.44;5119700;27;45623;-42
2023/05/18 00:04:50;;;;;;;;;7.33;4.00;;;;;-143.57;100.00;65101.44;5119823;27;45278;-46
2023/05/18 00:07:16;;;;;;;;;13.67;7.00;;;;;-143.57;100.00;65101.44;5119819;27;45346;-41
2023/05/18 00:09:41;;;;;;;;;6.00;6.00;;;;;-143.57;100.00;65101.44;5119996;27;45389;-43
2023/05/18 00:12:08;;;;;;;;;8.33;5.67;;;;;-143.57;100.00;65101.44;5120011;27;45271;-53
2023/05/18 00:14:34;;;;;;;;;4.67;4.00;;;;;-143.57;100.00;65101.44;5119753;27;46964;-51
2023/05/18 00:17:00;;;;;;;;;11.33;5.33;;;;;-143.57;100.00;65101.44;5119705;27;45412;-57
2023/05/18 00:19:27;;;;;;;;;4.67;3.33;;;;;-143.57;100.00;65101.44;5119852;27;45423;-51
2023/05/18 00:21:54;;;;;;;;;7.00;4.00;;;;;-143.57;100.00;65101.44;5120015;27;45525;-55
2023/05/18 00:24:20;;;;;;;;;6.00;4.00;;;;;-143.57;100.00;65101.44;5119170;27;46383;-44
2023/05/18 00:26:47;;;;;;;;;9.00;6.00;;;;;-143.57;100.00;65101.44;5119513;27;45399;-56
2023/05/18 00:29:13;;;;;;;;;8.00;6.33;;;;;-143.57;100.00;65101.44;5118227;27;45412;-53
2023/05/18 00:31:39;;;;;;;;;6.67;3.00;;;;;-143.57;100.00;65101.44;5119856;27;45393;-57
2023/05/18 00:34:05;;;;;;;;;7.67;6.67;;;;;-143.57;100.00;65101.44;5118754;27;45988;-55
2023/05/18 00:36:31;;;;;;;;;6.67;4.00;;;;;-143.57;100.00;65101.44;5119335;27;45263;-50
2023/05/18 00:38:58;;;;;;;;;6.67;4.00;;;;;-143.57;100.00;65101.44;5119683;27;45534;-43
2023/05/18 00:41:25;;;;;;;;;8.00;6.00;;;;;-143.57;100.00;65101.44;5119800;27;45347;-47
2023/05/18 00:43:51;;;;;;;;;4.00;4.00;;;;;-143.57;100.00;65101.44;5119413;27;46015;-54
2023/05/18 00:46:16;;;;;;;;;6.00;3.33;;;;;-143.57;100.00;65101.44;5119427;27;45374;-46
2023/05/18 00:48:42;;;;;;;;;8.33;3.00;;;;;-143.57;100.00;65101.44;5119357;27;45314;-56
2023/05/18 00:51:09;;;;;;;;;8.33;4.00;;;;;-143.57;100.00;65101.44;5119524;27;45232;-53
2023/05/18 00:53:35;;;;;;;;;6.00;3.67;;;;;-143.57;100.00;65101.44;5118726;27;46261;-54
2023/05/18 00:56:03;;;;;;;;;6.67;6.67;;;;;-143.57;100.00;65101.44;5118993;27;45760;-57
2023/05/18 00:58:30;;;;;;;;;4.00;4.00;;;;;-143.57;100.00;65101.44;5119146;27;45453;-53
2023/05/18 01:00:55;;;;;;;;;6.00;3.67;;;;;-143.57;100.00;65101.44;5119214;27;45361;-54
2023/05/18 01:03:21;;;;;;;;;6.33;6.33;;;;;-143.57;100.00;65101.44;5118739;27;45435;-54
2023/05/18 01:05:54;;;;;;;;;3.33;3.33;;;;;-143.57;100.00;65101.44;5117881;27;45446;-49
2023/05/18 01:08:26;;;;;;;;;8.33;4.00;;;;;-143.57;100.00;65101.44;5119175;27;45371;-50
2023/05/18 01:11:02;;;;;;;;;6.00;3.00;;;;;-143.57;100.00;65101.44;5119484;27;45520;-51
2023/05/18 01:13:37;;;;;;;;;4.00;4.00;;;;;-143.57;100.00;65101.44;5100544;27;46458;-51
2023/05/18 01:16:08;;;;;;;;;3.00;3.00;;;;;-143.57;100.00;65101.44;5118764;27;45340;-41
2023/05/18 01:18:45;;;;;;;;;6.67;3.33;;;;;-143.57;100.00;65101.44;5118753;27;45341;-56
2023/05/18 01:21:24;;;;;;;;;7.67;5.33;;;;;-143.57;100.00;65101.44;5118945;27;45349;-49
2023/05/18 01:24:03;;;;;;;;;7.33;6.00;;;;;-143.57;100.00;65101.44;5117857;27;46193;-53
2023/05/18 01:26:36;;;;;;;;;3.67;3.67;;;;;-143.57;100.00;65101.44;5118677;27;45425;-50
2023/05/18 01:29:05;;;;;;;;;4.00;4.00;;;;;-143.57;100.00;65101.44;5118436;27;45457;-52
2023/05/18 01:31:31;;;;;;;;;3.33;3.00;;;;;-143.57;100.00;65101.44;5118570;27;45440;-56
2023/05/18 01:33:56;;;;;;;;;7.00;4.67;;;;;-143.57;100.00;65101.44;5118418;27;45977;-50
2023/05/18 01:36:22;;;;;;;;;4.00;4.00;;;;;-143.57;100.00;65101.44;5118101;27;45327;-52
2023/05/18 01:38:47;;;;;;;;;6.00;4.00;;;;;-143.57;100.00;65101.44;5118556;27;45442;-56
2023/05/18 01:41:29;;;;;;;;;4.00;4.00;;;;;-143.57;100.00;65101.44;5118427;27;45436;-54
2023/05/18 01:44:08;;;;;;;;;3.67;3.67;;;;;-143.57;100.00;65101.44;5118122;27;46287;-55
2023/05/18 01:46:45;;;;;;;;;8.33;4.00;;;;;-143.57;100.00;65101.44;5099568;27;45504;-56
2023/05/18 01:49:27;;;;;;;;;7.00;4.00;;;;;-143.57;100.00;65101.44;5118759;27;45416;-49
2023/05/18 01:51:57;;;;;;;;;7.00;3.00;;;;;-143.57;100.00;65101.44;5118640;27;45461;-51
2023/05/18 01:54:23;;;;;;;;;6.33;6.33;;;;;-143.57;100.00;65101.44;5117679;27;45421;-52
2023/05/18 01:56:53;;;;;;;;;5.67;5.67;;;;;-143.57;100.00;65101.44;5117045;27;45375;-56
2023/05/18 01:59:18;;;;;;;;;10.00;6.00;;;;;-143.57;100.00;65101.44;5118380;27;45311;-44
2023/05/18 02:01:44;;;;;;;;;4.33;4.00;;;;;-143.57;100.00;65101.44;5118193;27;45433;-50
2023/05/18 02:04:09;;;;;;;;;6.00;3.33;;;;;-143.57;100.00;65101.44;5117915;27;46024;-56
2023/05/18 02:06:35;;;;;;;;;2.00;2.00;;;;;-143.57;100.00;65101.44;5099284;27;45454;-49
2023/05/18 02:09:02;;;;;;;;;6.67;6.00;;;;;-143.57;100.00;65101.44;5117928;27;45481;-55
2023/05/18 02:11:28;;;;;;;;;6.00;4.33;;;;;-143.57;100.00;65101.44;5118231;27;45453;-54
2023/05/18 02:13:53;;;;;;;;;7.00;4.33;;;;;-143.57;100.00;65101.44;5117858;27;46100;-50
2023/05/18 02:16:19;;;;;;;;;6.00;3.67;;;;;-143.57;100.00;65101.44;5117292;27;45410;-54
2023/05/18 02:18:44;;;;;;;;;3.00;3.00;;;;;-143.57;100.00;65101.44;5116222;27;47853;-55
2023/05/18 02:21:09;;;;;;;;;7.00;6.00;;;;;-143.57;100.00;65101.44;5118248;27;45374;-54
2023/05/18 02:23:35;;;;;;;;;5.00;5.00;;;;;-143.57;100.00;65101.44;5117695;27;45777;-55
2023/05/18 02:26:00;;;;;;;;;5.00;5.00;;;;;-143.57;100.00;65101.44;5116749;27;45274;-53
2023/05/18 02:28:26;;;;;;;;;6.00;3.00;;;;;-143.57;100.00;65101.44;5117458;27;45571;-52
2023/05/18 02:30:51;;;;;;;;;5.33;5.33;;;;;-143.57;100.00;65101.44;5117363;27;45259;-55
2023/05/18 02:33:18;;;;;;;;;6.33;5.00;;;;;-143.57;100.00;65101.44;5117544;27;46285;-52
2023/05/18 02:35:43;;;;;;;;;8.00;5.33;;;;;-143.57;100.00;65101.44;5117168;27;45317;-52
2023/05/18 02:38:09;;;;;;;;;12.33;6.00;;;;;-143.57;100.00;65101.44;5117391;27;45369;-52
2023/05/18 02:40:35;;;;;;;;;7.33;6.00;;;;;-143.57;100.00;65101.44;5117454;27;45421;-56
2023/05/18 02:43:00;;;;;;;;;3.00;3.00;;;;;-143.57;100.00;65101.44;5117482;27;46184;-52
2023/05/18 02:45:26;;;;;;;;;8.00;8.00;;;;;-143.57;100.00;65101.44;5117417;27;45330;-53
2023/05/18 02:47:51;;;;;;;;;8.33;4.67;;;;;-143.57;100.00;65101.44;5117629;27;45321;-49
2023/05/18 02:50:16;;;;;;;;;7.00;6.00;;;;;-143.57;100.00;65101.44;5117085;27;45266;-52
2023/05/18 02:52:44;;;;;;;;;10.33;7.00;;;;;-143.57;100.00;65101.44;5117391;27;45952;-50
2023/05/18 02:55:09;;;;;;;;;7.00;3.00;;;;;-143.57;100.00;65101.44;5117357;27;45475;-54
2023/05/18 02:57:35;;;;;;;;;8.33;7.00;;;;;-143.57;100.00;65101.44;5117157;27;45452;-56
2023/05/18 03:00:00;;;;;;;;;7.33;5.67;;;;;-143.57;100.00;65101.44;5117796;27;45379;-40
2023/05/18 03:02:26;;;;;;;;;10.00;6.00;;;;;-143.57;100.00;65101.44;5117169;27;45849;-39
2023/05/18 03:04:56;;;;;;;;;10.00;7.33;;;;;-143.57;100.00;65101.44;5116820;27;45446;-42
2023/05/18 03:07:26;;;;;;;;;6.67;6.67;;;;;-143.57;100.00;65101.44;5117605;27;45427;-40
2023/05/18 03:09:51;;;;;;;;;8.67;7.67;;;;;-143.57;100.00;65101.44;5117474;27;45952;-40
2023/05/18 03:12:17;;;;;;;;;11.00;6.00;;;;;-143.57;100.00;65101.44;5117234;27;45864;-39
2023/05/18 03:14:42;;;;;;;;;6.67;6.67;;;;;-143.57;100.00;65101.44;5117101;27;45420;-39
2023/05/18 03:17:07;;;;;;;;;8.67;7.33;;;;;-143.57;100.00;65101.44;5117351;27;45760;-38
2023/05/18 03:19:33;;;;;;;;;8.67;8.67;;;;;-143.57;100.00;65101.44;5117406;27;45429;-41
2023/05/18 03:21:59;;;;;;;;;7.33;6.00;;;;;-143.57;100.00;65101.44;5116861;27;47210;-41
2023/05/18 03:24:25;;;;;;;;;9.67;8.00;;;;;-143.57;100.00;65101.44;5116843;27;45350;-39
2023/05/18 03:26:54;;;;;;;;;12.33;9.33;;;;;-143.57;100.00;65101.44;5116962;27;45369;-44
2023/05/18 03:29:20;;;;;;;;;6.67;6.00;;;;;-143.57;100.00;65101.44;5120078;27;45548;-39
2023/05/18 03:31:45;;;;;;;;;7.67;6.00;;;;;-143.57;100.00;65101.44;5120392;27;47078;-40
2023/05/18 03:34:11;;;;;;;;;8.00;7.67;;;;;-143.57;100.00;65101.44;5120463;27;45416;-40
2023/05/18 03:36:37;;;;;;;;;11.67;7.00;;;;;-143.57;100.00;65101.44;5119694;27;45413;-40
2023/05/18 03:39:04;;;;;;;;;11.67;7.00;;;;;-143.57;100.00;65101.44;5120256;27;45456;-40
2023/05/18 03:41:30;;;;;;;;;7.00;7.00;;;;;-143.57;100.00;65101.44;5120353;27;46420;-40
2023/05/18 03:43:56;;;;;;;;;11.33;7.00;;;;;-143.57;100.00;65101.44;5120374;27;45455;-47
2023/05/18 03:46:22;;;;;;;;;10.00;6.00;;;;;-143.57;100.00;65101.44;5120443;27;45451;-41
2023/05/18 03:48:47;;;;;;;;;11.00;6.33;;;;;-143.57;100.00;65101.44;5120190;27;45474;-41
2023/05/18 03:51:13;;;;;;;;;8.33;8.00;;;;;-143.57;100.00;65101.44;5120309;27;45408;-51
2023/05/18 03:53:38;;;;;;;;;10.33;8.00;;;;;-143.57;100.00;65101.44;5120184;27;45245;-41
2023/05/18 03:56:03;;;;;;;;;13.00;8.00;;;;;-143.57;100.00;65101.44;5120142;27;45325;-42
